sensor_id;sensor_type;location;lat;lon;timestamp;P1;durP1;ratioP1;P2;durP2;ratioP2
24216;SDS011;12356;49.386;8.688;2022-12-20T00:00:03;29.33;;;17.25;;
24216;SDS011;12356;49.386;8.688;2022-12-20T00:02:34;30.10;;;17.65;;
24216;SDS011;12356;49.386;8.688;2022-12-20T00:05:05;33.85;;;17.98;;
24216;SDS011;12356;49.386;8.688;2022-12-20T00:07:36;30.77;;;17.70;;
24216;SDS011;12356;49.386;8.688;2022-12-20T00:10:07;30.23;;;17.52;;
24216;SDS011;12356;49.386;8.688;2022-12-20T00:12:38;30.77;;;17.17;;
24216;SDS011;12356;49.386;8.688;2022-12-20T00:15:08;29.23;;;16.73;;
24216;SDS011;12356;49.386;8.688;2022-12-20T00:17:39;28.27;;;16.48;;
24216;SDS011;12356;49.386;8.688;2022-12-20T00:20:10;31.73;;;17.20;;
24216;SDS011;12356;49.386;8.688;2022-12-20T00:22:41;29.73;;;16.67;;
24216;SDS011;12356;49.386;8.688;2022-12-20T00:25:11;27.10;;;15.73;;
24216;SDS011;12356;49.386;8.688;2022-12-20T00:27:42;28.63;;;15.73;;
24216;SDS011;12356;49.386;8.688;2022-12-20T00:30:13;27.42;;;16.23;;
24216;SDS011;12356;49.386;8.688;2022-12-20T00:32:44;27.27;;;15.70;;
24216;SDS011;12356;49.386;8.688;2022-12-20T00:35:15;27.98;;;15.70;;
24216;SDS011;12356;49.386;8.688;2022-12-20T00:37:46;25.95;;;15.15;;
24216;SDS011;12356;49.386;8.688;2022-12-20T00:40:17;28.42;;;14.98;;
24216;SDS011;12356;49.386;8.688;2022-12-20T00:42:47;27.65;;;15.43;;
24216;SDS011;12356;49.386;8.688;2022-12-20T00:45:18;26.15;;;14.50;;
24216;SDS011;12356;49.386;8.688;2022-12-20T00:47:49;24.65;;;14.60;;
24216;SDS011;12356;49.386;8.688;2022-12-20T00:50:19;26.65;;;14.93;;
24216;SDS011;12356;49.386;8.688;2022-12-20T00:52:50;26.23;;;15.27;;
24216;SDS011;12356;49.386;8.688;2022-12-20T00:55:20;25.15;;;14.93;;
24216;SDS011;12356;49.386;8.688;2022-12-20T00:57:51;26.85;;;15.48;;
24216;SDS011;12356;49.386;8.688;2022-12-20T01:00:22;25.33;;;15.23;;
24216;SDS011;12356;49.386;8.688;2022-12-20T01:02:52;27.40;;;15.80;;
24216;SDS011;12356;49.386;8.688;2022-12-20T01:05:23;27.55;;;15.23;;
24216;SDS011;12356;49.386;8.688;2022-12-20T01:07:53;26.50;;;15.77;;
24216;SDS011;12356;49.386;8.688;2022-12-20T01:10:24;25.75;;;15.00;;
24216;SDS011;12356;49.386;8.688;2022-12-20T01:12:55;23.55;;;14.27;;
24216;SDS011;12356;49.386;8.688;2022-12-20T01:15:26;27.58;;;15.52;;
24216;SDS011;12356;49.386;8.688;2022-12-20T01:17:57;25.10;;;14.27;;
24216;SDS011;12356;49.386;8.688;2022-12-20T01:20:28;27.85;;;14.27;;
24216;SDS011;12356;49.386;8.688;2022-12-20T01:22:59;25.10;;;14.40;;
24216;SDS011;12356;49.386;8.688;2022-12-20T01:25:30;26.05;;;14.13;;
24216;SDS011;12356;49.386;8.688;2022-12-20T01:28:00;23.75;;;13.25;;
24216;SDS011;12356;49.386;8.688;2022-12-20T01:30:31;22.60;;;13.02;;
24216;SDS011;12356;49.386;8.688;2022-12-20T01:33:02;25.75;;;12.98;;
24216;SDS011;12356;49.386;8.688;2022-12-20T01:35:32;24.73;;;12.02;;
24216;SDS011;12356;49.386;8.688;2022-12-20T01:38:03;23.30;;;12.95;;
24216;SDS011;12356;49.386;8.688;2022-12-20T01:40:34;23.52;;;12.27;;
24216;SDS011;12356;49.386;8.688;2022-12-20T01:43:10;24.63;;;13.20;;
24216;SDS011;12356;49.386;8.688;2022-12-20T01:45:44;23.25;;;12.52;;
24216;SDS011;12356;49.386;8.688;2022-12-20T01:48:17;22.10;;;12.52;;
24216;SDS011;12356;49.386;8.688;2022-12-20T01:50:52;20.75;;;12.60;;
24216;SDS011;12356;49.386;8.688;2022-12-20T01:53:23;21.52;;;12.65;;
24216;SDS011;12356;49.386;8.688;2022-12-20T01:55:53;21.67;;;13.07;;
24216;SDS011;12356;49.386;8.688;2022-12-20T01:58:24;19.92;;;12.25;;
24216;SDS011;12356;49.386;8.688;2022-12-20T02:00:55;21.25;;;12.85;;
24216;SDS011;12356;49.386;8.688;2022-12-20T02:03:26;20.50;;;12.48;;
24216;SDS011;12356;49.386;8.688;2022-12-20T02:08:43;23.42;;;12.50;;
24216;SDS011;12356;49.386;8.688;2022-12-20T02:11:35;21.20;;;12.15;;
24216;SDS011;12356;49.386;8.688;2022-12-20T02:17:32;23.63;;;13.90;;
24216;SDS011;12356;49.386;8.688;2022-12-20T02:22:49;22.75;;;13.68;;
24216;SDS011;12356;49.386;8.688;2022-12-20T02:30:59;22.33;;;13.73;;
24216;SDS011;12356;49.386;8.688;2022-12-20T02:33:36;24.05;;;13.50;;
24216;SDS011;12356;49.386;8.688;2022-12-20T02:36:11;22.52;;;13.38;;
24216;SDS011;12356;49.386;8.688;2022-12-20T02:38:45;24.95;;;14.45;;
24216;SDS011;12356;49.386;8.688;2022-12-20T02:44:08;23.58;;;13.95;;
24216;SDS011;12356;49.386;8.688;2022-12-20T02:47:01;22.10;;;13.88;;
24216;SDS011;12356;49.386;8.688;2022-12-20T02:49:36;23.30;;;14.57;;
24216;SDS011;12356;49.386;8.688;2022-12-20T02:52:10;22.85;;;13.25;;
24216;SDS011;12356;49.386;8.688;2022-12-20T03:00:21;20.63;;;12.38;;
24216;SDS011;12356;49.386;8.688;2022-12-20T03:02:52;22.38;;;13.05;;
24216;SDS011;12356;49.386;8.688;2022-12-20T03:05:44;22.30;;;13.00;;
24216;SDS011;12356;49.386;8.688;2022-12-20T03:08:16;20.92;;;12.93;;
24216;SDS011;12356;49.386;8.688;2022-12-20T03:10:47;19.83;;;12.68;;
24216;SDS011;12356;49.386;8.688;2022-12-20T03:13:20;22.30;;;12.43;;
24216;SDS011;12356;49.386;8.688;2022-12-20T03:15:52;21.70;;;13.13;;
24216;SDS011;12356;49.386;8.688;2022-12-20T03:18:22;21.35;;;12.55;;
24216;SDS011;12356;49.386;8.688;2022-12-20T03:20:53;22.55;;;12.52;;
24216;SDS011;12356;49.386;8.688;2022-12-20T03:23:24;18.77;;;12.27;;
24216;SDS011;12356;49.386;8.688;2022-12-20T03:25:54;21.55;;;12.32;;
24216;SDS011;12356;49.386;8.688;2022-12-20T03:28:25;18.70;;;11.68;;
24216;SDS011;12356;49.386;8.688;2022-12-20T03:30:55;18.25;;;11.43;;
24216;SDS011;12356;49.386;8.688;2022-12-20T03:33:26;21.38;;;12.48;;
24216;SDS011;12356;49.386;8.688;2022-12-20T03:35:57;18.48;;;11.93;;
24216;SDS011;12356;49.386;8.688;2022-12-20T03:38:27;19.23;;;11.48;;
24216;SDS011;12356;49.386;8.688;2022-12-20T03:40:58;19.33;;;11.40;;
24216;SDS011;12356;49.386;8.688;2022-12-20T03:43:29;19.40;;;11.52;;
24216;SDS011;12356;49.386;8.688;2022-12-20T03:45:59;19.67;;;11.90;;
24216;SDS011;12356;49.386;8.688;2022-12-20T03:48:30;19.90;;;11.00;;
24216;SDS011;12356;49.386;8.688;2022-12-20T03:51:00;17.45;;;11.20;;
24216;SDS011;12356;49.386;8.688;2022-12-20T03:53:31;17.15;;;10.57;;
24216;SDS011;12356;49.386;8.688;2022-12-20T03:56:02;16.13;;;10.30;;
24216;SDS011;12356;49.386;8.688;2022-12-20T03:58:32;17.85;;;10.95;;
24216;SDS011;12356;49.386;8.688;2022-12-20T04:01:15;18.02;;;11.05;;
24216;SDS011;12356;49.386;8.688;2022-12-20T04:03:46;16.67;;;10.30;;
24216;SDS011;12356;49.386;8.688;2022-12-20T04:06:17;15.70;;;10.05;;
24216;SDS011;12356;49.386;8.688;2022-12-20T04:08:49;16.83;;;10.68;;
24216;SDS011;12356;49.386;8.688;2022-12-20T04:11:19;14.90;;;10.02;;
24216;SDS011;12356;49.386;8.688;2022-12-20T04:13:51;16.33;;;10.25;;
24216;SDS011;12356;49.386;8.688;2022-12-20T04:16:24;17.13;;;10.55;;
24216;SDS011;12356;49.386;8.688;2022-12-20T04:18:56;18.33;;;10.70;;
24216;SDS011;12356;49.386;8.688;2022-12-20T04:21:28;17.92;;;10.70;;
24216;SDS011;12356;49.386;8.688;2022-12-20T04:24:00;18.48;;;11.15;;
24216;SDS011;12356;49.386;8.688;2022-12-20T04:26:32;18.50;;;11.40;;
24216;SDS011;12356;49.386;8.688;2022-12-20T04:29:03;18.05;;;10.73;;
24216;SDS011;12356;49.386;8.688;2022-12-20T04:31:33;15.77;;;10.38;;
24216;SDS011;12356;49.386;8.688;2022-12-20T04:34:05;19.90;;;10.95;;
24216;SDS011;12356;49.386;8.688;2022-12-20T04:36:36;16.15;;;9.73;;
24216;SDS011;12356;49.386;8.688;2022-12-20T04:39:06;16.73;;;10.57;;
24216;SDS011;12356;49.386;8.688;2022-12-20T04:41:37;16.35;;;10.73;;
24216;SDS011;12356;49.386;8.688;2022-12-20T04:44:07;17.48;;;9.93;;
24216;SDS011;12356;49.386;8.688;2022-12-20T04:46:38;15.23;;;9.93;;
24216;SDS011;12356;49.386;8.688;2022-12-20T04:49:09;16.15;;;10.15;;
24216;SDS011;12356;49.386;8.688;2022-12-20T04:51:39;18.80;;;10.52;;
24216;SDS011;12356;49.386;8.688;2022-12-20T04:54:10;14.95;;;10.10;;
24216;SDS011;12356;49.386;8.688;2022-12-20T04:56:41;16.92;;;10.30;;
24216;SDS011;12356;49.386;8.688;2022-12-20T04:59:11;18.25;;;10.23;;
24216;SDS011;12356;49.386;8.688;2022-12-20T05:01:42;17.42;;;9.90;;
24216;SDS011;12356;49.386;8.688;2022-12-20T05:04:12;18.67;;;10.05;;
24216;SDS011;12356;49.386;8.688;2022-12-20T05:06:43;16.20;;;10.15;;
24216;SDS011;12356;49.386;8.688;2022-12-20T05:09:14;15.57;;;10.23;;
24216;SDS011;12356;49.386;8.688;2022-12-20T05:11:44;17.05;;;9.88;;
24216;SDS011;12356;49.386;8.688;2022-12-20T05:14:15;16.05;;;9.90;;
24216;SDS011;12356;49.386;8.688;2022-12-20T05:16:46;19.27;;;10.98;;
24216;SDS011;12356;49.386;8.688;2022-12-20T05:19:16;19.85;;;10.63;;
24216;SDS011;12356;49.386;8.688;2022-12-20T05:21:47;18.50;;;10.77;;
24216;SDS011;12356;49.386;8.688;2022-12-20T05:24:36;16.73;;;10.82;;
24216;SDS011;12356;49.386;8.688;2022-12-20T05:27:25;19.20;;;10.93;;
24216;SDS011;12356;49.386;8.688;2022-12-20T05:29:56;17.48;;;11.07;;
24216;SDS011;12356;49.386;8.688;2022-12-20T05:32:26;19.27;;;11.57;;
24216;SDS011;12356;49.386;8.688;2022-12-20T05:34:57;19.10;;;11.40;;
24216;SDS011;12356;49.386;8.688;2022-12-20T05:37:28;20.55;;;11.48;;
24216;SDS011;12356;49.386;8.688;2022-12-20T05:39:59;18.63;;;10.88;;
24216;SDS011;12356;49.386;8.688;2022-12-20T05:42:29;17.63;;;11.32;;
24216;SDS011;12356;49.386;8.688;2022-12-20T05:45:00;19.50;;;11.85;;
24216;SDS011;12356;49.386;8.688;2022-12-20T05:47:30;20.83;;;11.15;;
24216;SDS011;12356;49.386;8.688;2022-12-20T05:50:02;21.80;;;11.20;;
24216;SDS011;12356;49.386;8.688;2022-12-20T05:52:34;17.55;;;11.05;;
24216;SDS011;12356;49.386;8.688;2022-12-20T05:55:04;19.45;;;11.82;;
24216;SDS011;12356;49.386;8.688;2022-12-20T05:57:35;19.10;;;11.73;;
24216;SDS011;12356;49.386;8.688;2022-12-20T06:00:06;16.73;;;10.88;;
24216;SDS011;12356;49.386;8.688;2022-12-20T06:02:37;18.45;;;11.43;;
24216;SDS011;12356;49.386;8.688;2022-12-20T06:05:08;20.95;;;12.02;;
24216;SDS011;12356;49.386;8.688;2022-12-20T06:07:39;20.00;;;13.02;;
24216;SDS011;12356;49.386;8.688;2022-12-20T06:10:10;20.23;;;11.55;;
24216;SDS011;12356;49.386;8.688;2022-12-20T06:12:41;16.08;;;10.88;;
24216;SDS011;12356;49.386;8.688;2022-12-20T06:15:11;18.25;;;11.57;;
24216;SDS011;12356;49.386;8.688;2022-12-20T06:17:44;18.48;;;11.75;;
24216;SDS011;12356;49.386;8.688;2022-12-20T06:20:15;17.50;;;11.27;;
24216;SDS011;12356;49.386;8.688;2022-12-20T06:22:45;20.42;;;11.70;;
24216;SDS011;12356;49.386;8.688;2022-12-20T06:25:16;17.50;;;11.35;;
24216;SDS011;12356;49.386;8.688;2022-12-20T06:27:47;18.05;;;10.95;;
24216;SDS011;12356;49.386;8.688;2022-12-20T06:30:17;20.02;;;12.02;;
24216;SDS011;12356;49.386;8.688;2022-12-20T06:32:48;22.38;;;11.85;;
24216;SDS011;12356;49.386;8.688;2022-12-20T06:35:19;19.40;;;11.82;;
24216;SDS011;12356;49.386;8.688;2022-12-20T06:37:50;20.58;;;12.40;;
24216;SDS011;12356;49.386;8.688;2022-12-20T06:40:20;21.98;;;13.70;;
24216;SDS011;12356;49.386;8.688;2022-12-20T06:42:51;20.88;;;12.75;;
24216;SDS011;12356;49.386;8.688;2022-12-20T06:45:22;19.77;;;12.43;;
24216;SDS011;12356;49.386;8.688;2022-12-20T06:47:53;25.48;;;13.68;;
24216;SDS011;12356;49.386;8.688;2022-12-20T06:50:23;22.30;;;13.95;;
24216;SDS011;12356;49.386;8.688;2022-12-20T06:52:54;22.80;;;13.60;;
24216;SDS011;12356;49.386;8.688;2022-12-20T06:55:25;23.67;;;14.18;;
24216;SDS011;12356;49.386;8.688;2022-12-20T06:57:56;22.83;;;13.68;;
24216;SDS011;12356;49.386;8.688;2022-12-20T07:00:27;24.90;;;14.95;;
24216;SDS011;12356;49.386;8.688;2022-12-20T07:02:57;22.27;;;14.02;;
24216;SDS011;12356;49.386;8.688;2022-12-20T07:05:28;31.15;;;17.65;;
24216;SDS011;12356;49.386;8.688;2022-12-20T07:07:59;27.77;;;15.88;;
24216;SDS011;12356;49.386;8.688;2022-12-20T07:10:35;26.05;;;15.48;;
24216;SDS011;12356;49.386;8.688;2022-12-20T07:13:06;28.13;;;15.18;;
24216;SDS011;12356;49.386;8.688;2022-12-20T07:15:38;26.00;;;14.63;;
24216;SDS011;12356;49.386;8.688;2022-12-20T07:18:08;25.35;;;14.85;;
24216;SDS011;12356;49.386;8.688;2022-12-20T07:20:39;26.63;;;15.18;;
24216;SDS011;12356;49.386;8.688;2022-12-20T07:23:10;27.15;;;15.30;;
24216;SDS011;12356;49.386;8.688;2022-12-20T07:25:41;26.48;;;14.98;;
24216;SDS011;12356;49.386;8.688;2022-12-20T07:28:11;24.27;;;15.02;;
24216;SDS011;12356;49.386;8.688;2022-12-20T07:30:42;25.02;;;14.63;;
24216;SDS011;12356;49.386;8.688;2022-12-20T07:33:12;27.30;;;14.98;;
24216;SDS011;12356;49.386;8.688;2022-12-20T07:35:43;23.35;;;14.70;;
24216;SDS011;12356;49.386;8.688;2022-12-20T07:38:15;25.13;;;18.67;;
24216;SDS011;12356;49.386;8.688;2022-12-20T07:40:46;23.70;;;13.52;;
24216;SDS011;12356;49.386;8.688;2022-12-20T07:43:16;28.92;;;15.50;;
24216;SDS011;12356;49.386;8.688;2022-12-20T07:45:47;30.88;;;16.27;;
24216;SDS011;12356;49.386;8.688;2022-12-20T07:48:18;29.50;;;15.25;;
24216;SDS011;12356;49.386;8.688;2022-12-20T07:50:52;38.05;;;16.42;;
24216;SDS011;12356;49.386;8.688;2022-12-20T07:53:27;32.08;;;16.10;;
24216;SDS011;12356;49.386;8.688;2022-12-20T07:55:59;35.35;;;16.25;;
24216;SDS011;12356;49.386;8.688;2022-12-20T07:58:32;33.85;;;16.80;;
24216;SDS011;12356;49.386;8.688;2022-12-20T08:01:04;34.45;;;16.80;;
24216;SDS011;12356;49.386;8.688;2022-12-20T08:03:36;41.20;;;16.67;;
24216;SDS011;12356;49.386;8.688;2022-12-20T08:06:10;32.42;;;16.80;;
24216;SDS011;12356;49.386;8.688;2022-12-20T08:08:45;37.92;;;17.27;;
24216;SDS011;12356;49.386;8.688;2022-12-20T08:11:18;30.83;;;17.35;;
24216;SDS011;12356;49.386;8.688;2022-12-20T08:13:51;33.67;;;17.17;;
24216;SDS011;12356;49.386;8.688;2022-12-20T08:16:22;34.80;;;17.85;;
24216;SDS011;12356;49.386;8.688;2022-12-20T08:18:52;30.02;;;17.20;;
24216;SDS011;12356;49.386;8.688;2022-12-20T08:21:23;29.05;;;16.73;;
24216;SDS011;12356;49.386;8.688;2022-12-20T08:23:54;31.33;;;16.70;;
24216;SDS011;12356;49.386;8.688;2022-12-20T08:26:25;28.05;;;17.25;;
24216;SDS011;12356;49.386;8.688;2022-12-20T08:28:56;29.77;;;16.95;;
24216;SDS011;12356;49.386;8.688;2022-12-20T08:31:27;32.80;;;17.52;;
24216;SDS011;12356;49.386;8.688;2022-12-20T08:33:57;30.58;;;17.60;;
24216;SDS011;12356;49.386;8.688;2022-12-20T08:36:28;34.63;;;18.23;;
24216;SDS011;12356;49.386;8.688;2022-12-20T08:39:02;31.58;;;18.05;;
24216;SDS011;12356;49.386;8.688;2022-12-20T08:41:33;28.48;;;17.00;;
24216;SDS011;12356;49.386;8.688;2022-12-20T08:44:05;23.15;;;13.13;;
24216;SDS011;12356;49.386;8.688;2022-12-20T08:46:37;35.60;;;17.38;;
24216;SDS011;12356;49.386;8.688;2022-12-20T08:49:07;30.25;;;16.58;;
24216;SDS011;12356;49.386;8.688;2022-12-20T08:51:38;30.38;;;17.08;;
24216;SDS011;12356;49.386;8.688;2022-12-20T08:54:09;31.70;;;16.73;;
24216;SDS011;12356;49.386;8.688;2022-12-20T08:56:39;28.42;;;16.70;;
24216;SDS011;12356;49.386;8.688;2022-12-20T08:59:10;37.72;;;16.45;;
24216;SDS011;12356;49.386;8.688;2022-12-20T09:01:41;31.65;;;16.58;;
24216;SDS011;12356;49.386;8.688;2022-12-20T09:04:11;30.50;;;15.52;;
24216;SDS011;12356;49.386;8.688;2022-12-20T09:06:43;29.98;;;15.38;;
24216;SDS011;12356;49.386;8.688;2022-12-20T09:09:14;31.05;;;14.95;;
24216;SDS011;12356;49.386;8.688;2022-12-20T09:11:45;29.52;;;15.70;;
24216;SDS011;12356;49.386;8.688;2022-12-20T09:14:16;35.25;;;15.45;;
24216;SDS011;12356;49.386;8.688;2022-12-20T09:16:47;37.05;;;17.33;;
24216;SDS011;12356;49.386;8.688;2022-12-20T09:19:18;30.58;;;15.77;;
24216;SDS011;12356;49.386;8.688;2022-12-20T09:21:49;29.65;;;14.45;;
24216;SDS011;12356;49.386;8.688;2022-12-20T09:24:19;35.53;;;14.45;;
24216;SDS011;12356;49.386;8.688;2022-12-20T09:26:50;28.48;;;13.70;;
24216;SDS011;12356;49.386;8.688;2022-12-20T09:29:21;34.47;;;14.02;;
24216;SDS011;12356;49.386;8.688;2022-12-20T09:31:51;40.60;;;14.05;;
24216;SDS011;12356;49.386;8.688;2022-12-20T09:34:22;29.85;;;14.15;;
24216;SDS011;12356;49.386;8.688;2022-12-20T09:36:52;24.67;;;13.18;;
24216;SDS011;12356;49.386;8.688;2022-12-20T09:39:24;30.08;;;13.07;;
24216;SDS011;12356;49.386;8.688;2022-12-20T09:41:54;27.58;;;14.88;;
24216;SDS011;12356;49.386;8.688;2022-12-20T09:44:30;19.58;;;10.73;;
24216;SDS011;12356;49.386;8.688;2022-12-20T09:47:05;30.55;;;15.50;;
24216;SDS011;12356;49.386;8.688;2022-12-20T09:49:42;33.38;;;14.05;;
24216;SDS011;12356;49.386;8.688;2022-12-20T10:00:56;25.00;;;13.35;;
24216;SDS011;12356;49.386;8.688;2022-12-20T10:03:31;27.23;;;14.13;;
24216;SDS011;12356;49.386;8.688;2022-12-20T10:24:02;20.80;;;11.38;;
24216;SDS011;12356;49.386;8.688;2022-12-20T10:26:37;19.90;;;11.30;;
24216;SDS011;12356;49.386;8.688;2022-12-20T10:29:08;23.38;;;12.10;;
24216;SDS011;12356;49.386;8.688;2022-12-20T10:31:39;19.83;;;11.68;;
24216;SDS011;12356;49.386;8.688;2022-12-20T10:34:09;19.10;;;11.25;;
24216;SDS011;12356;49.386;8.688;2022-12-20T10:36:40;17.80;;;10.43;;
24216;SDS011;12356;49.386;8.688;2022-12-20T10:39:11;15.40;;;10.43;;
24216;SDS011;12356;49.386;8.688;2022-12-20T10:44:25;18.00;;;10.20;;
24216;SDS011;12356;49.386;8.688;2022-12-20T10:46:58;16.90;;;9.63;;
24216;SDS011;12356;49.386;8.688;2022-12-20T10:52:01;17.67;;;8.70;;
24216;SDS011;12356;49.386;8.688;2022-12-20T10:54:44;14.27;;;7.13;;
24216;SDS011;12356;49.386;8.688;2022-12-20T10:57:19;12.70;;;7.18;;
24216;SDS011;12356;49.386;8.688;2022-12-20T10:59:53;13.00;;;7.20;;
24216;SDS011;12356;49.386;8.688;2022-12-20T11:02:35;13.80;;;6.57;;
24216;SDS011;12356;49.386;8.688;2022-12-20T11:10:35;5.35;;;2.85;;
24216;SDS011;12356;49.386;8.688;2022-12-20T11:13:09;5.53;;;3.17;;
24216;SDS011;12356;49.386;8.688;2022-12-20T11:15:54;7.85;;;3.10;;
24216;SDS011;12356;49.386;8.688;2022-12-20T11:21:13;4.85;;;2.90;;
24216;SDS011;12356;49.386;8.688;2022-12-20T11:24:10;7.25;;;3.13;;
24216;SDS011;12356;49.386;8.688;2022-12-20T11:38:16;5.35;;;3.33;;
24216;SDS011;12356;49.386;8.688;2022-12-20T11:43:58;4.93;;;3.22;;
24216;SDS011;12356;49.386;8.688;2022-12-20T11:55:15;8.48;;;3.97;;
24216;SDS011;12356;49.386;8.688;2022-12-20T11:57:59;9.20;;;4.13;;
24216;SDS011;12356;49.386;8.688;2022-12-20T12:00:34;15.88;;;8.57;;
24216;SDS011;12356;49.386;8.688;2022-12-20T12:03:11;13.32;;;7.53;;
24216;SDS011;12356;49.386;8.688;2022-12-20T12:06:09;14.32;;;9.00;;
24216;SDS011;12356;49.386;8.688;2022-12-20T12:12:09;16.70;;;8.75;;
24216;SDS011;12356;49.386;8.688;2022-12-20T12:15:05;20.08;;;11.32;;
24216;SDS011;12356;49.386;8.688;2022-12-20T12:18:02;21.52;;;10.32;;
24216;SDS011;12356;49.386;8.688;2022-12-20T12:25:53;14.75;;;9.20;;
24216;SDS011;12356;49.386;8.688;2022-12-20T12:28:23;15.00;;;8.90;;
24216;SDS011;12356;49.386;8.688;2022-12-20T12:30:56;18.00;;;9.60;;
24216;SDS011;12356;49.386;8.688;2022-12-20T12:33:34;18.40;;;9.70;;
24216;SDS011;12356;49.386;8.688;2022-12-20T12:39:04;14.88;;;8.73;;
24216;SDS011;12356;49.386;8.688;2022-12-20T12:42:10;16.30;;;8.95;;
24216;SDS011;12356;49.386;8.688;2022-12-20T12:45:04;16.50;;;8.88;;
24216;SDS011;12356;49.386;8.688;2022-12-20T12:47:43;26.50;;;14.20;;
24216;SDS011;12356;49.386;8.688;2022-12-20T12:50:28;26.88;;;11.52;;
24216;SDS011;12356;49.386;8.688;2022-12-20T12:53:25;34.05;;;16.88;;
24216;SDS011;12356;49.386;8.688;2022-12-20T12:56:52;23.48;;;12.15;;
24216;SDS011;12356;49.386;8.688;2022-12-20T13:07:25;17.10;;;9.85;;
24216;SDS011;12356;49.386;8.688;2022-12-20T13:12:54;24.08;;;12.13;;
24216;SDS011;12356;49.386;8.688;2022-12-20T13:18:00;19.10;;;9.90;;
24216;SDS011;12356;49.386;8.688;2022-12-20T13:40:41;17.98;;;8.73;;
24216;SDS011;12356;49.386;8.688;2022-12-20T13:43:40;13.15;;;8.38;;
24216;SDS011;12356;49.386;8.688;2022-12-20T13:46:14;16.55;;;8.75;;
24216;SDS011;12356;49.386;8.688;2022-12-20T13:48:49;13.77;;;8.55;;
24216;SDS011;12356;49.386;8.688;2022-12-20T13:51:23;20.67;;;9.43;;
24216;SDS011;12356;49.386;8.688;2022-12-20T13:54:02;16.85;;;8.68;;
24216;SDS011;12356;49.386;8.688;2022-12-20T13:56:39;14.80;;;9.02;;
24216;SDS011;12356;49.386;8.688;2022-12-20T14:01:50;16.98;;;10.90;;
24216;SDS011;12356;49.386;8.688;2022-12-20T14:04:27;19.73;;;10.88;;
24216;SDS011;12356;49.386;8.688;2022-12-20T14:07:12;18.90;;;13.02;;
24216;SDS011;12356;49.386;8.688;2022-12-20T14:09:45;20.35;;;10.82;;
24216;SDS011;12356;49.386;8.688;2022-12-20T14:12:24;17.48;;;11.13;;
24216;SDS011;12356;49.386;8.688;2022-12-20T14:14:54;20.85;;;11.05;;
24216;SDS011;12356;49.386;8.688;2022-12-20T14:17:30;17.20;;;10.02;;
24216;SDS011;12356;49.386;8.688;2022-12-20T14:25:25;19.75;;;10.18;;
24216;SDS011;12356;49.386;8.688;2022-12-20T14:28:03;19.42;;;10.27;;
24216;SDS011;12356;49.386;8.688;2022-12-20T14:30:41;19.08;;;9.48;;
24216;SDS011;12356;49.386;8.688;2022-12-20T14:33:25;17.10;;;9.30;;
24216;SDS011;12356;49.386;8.688;2022-12-20T14:36:17;18.63;;;9.52;;
24216;SDS011;12356;49.386;8.688;2022-12-20T14:38:50;20.77;;;9.15;;
24216;SDS011;12356;49.386;8.688;2022-12-20T14:41:34;15.20;;;9.25;;
24216;SDS011;12356;49.386;8.688;2022-12-20T14:44:16;17.63;;;9.55;;
24216;SDS011;12356;49.386;8.688;2022-12-20T14:46:53;15.15;;;8.43;;
24216;SDS011;12356;49.386;8.688;2022-12-20T14:49:34;16.15;;;8.95;;
24216;SDS011;12356;49.386;8.688;2022-12-20T14:54:45;16.45;;;8.85;;
24216;SDS011;12356;49.386;8.688;2022-12-20T15:02:47;17.15;;;8.68;;
24216;SDS011;12356;49.386;8.688;2022-12-20T15:10:48;18.42;;;9.30;;
24216;SDS011;12356;49.386;8.688;2022-12-20T15:13:43;17.42;;;9.20;;
24216;SDS011;12356;49.386;8.688;2022-12-20T15:16:16;18.02;;;8.60;;
24216;SDS011;12356;49.386;8.688;2022-12-20T15:18:50;14.73;;;8.52;;
24216;SDS011;12356;49.386;8.688;2022-12-20T15:23:59;19.80;;;9.68;;
24216;SDS011;12356;49.386;8.688;2022-12-20T15:26:32;17.65;;;8.63;;
24216;SDS011;12356;49.386;8.688;2022-12-20T15:29:03;17.73;;;9.52;;
24216;SDS011;12356;49.386;8.688;2022-12-20T15:31:34;22.25;;;9.30;;
24216;SDS011;12356;49.386;8.688;2022-12-20T15:34:10;16.73;;;9.02;;
24216;SDS011;12356;49.386;8.688;2022-12-20T15:36:55;17.13;;;9.15;;
24216;SDS011;12356;49.386;8.688;2022-12-20T15:39:29;17.30;;;9.38;;
24216;SDS011;12356;49.386;8.688;2022-12-20T15:42:00;17.10;;;11.55;;
24216;SDS011;12356;49.386;8.688;2022-12-20T15:44:33;17.73;;;10.68;;
24216;SDS011;12356;49.386;8.688;2022-12-20T15:47:09;19.80;;;10.82;;
24216;SDS011;12356;49.386;8.688;2022-12-20T15:49:41;17.27;;;10.48;;
24216;SDS011;12356;49.386;8.688;2022-12-20T15:52:17;20.20;;;11.55;;
24216;SDS011;12356;49.386;8.688;2022-12-20T15:54:49;21.08;;;11.38;;
24216;SDS011;12356;49.386;8.688;2022-12-20T15:57:20;17.20;;;10.10;;
24216;SDS011;12356;49.386;8.688;2022-12-20T15:59:50;17.45;;;9.63;;
24216;SDS011;12356;49.386;8.688;2022-12-20T16:02:24;17.45;;;10.73;;
24216;SDS011;12356;49.386;8.688;2022-12-20T16:04:56;17.08;;;9.95;;
24216;SDS011;12356;49.386;8.688;2022-12-20T16:07:27;14.63;;;9.15;;
24216;SDS011;12356;49.386;8.688;2022-12-20T16:09:58;16.35;;;9.70;;
24216;SDS011;12356;49.386;8.688;2022-12-20T16:12:30;20.52;;;10.05;;
24216;SDS011;12356;49.386;8.688;2022-12-20T16:15:03;14.55;;;9.45;;
24216;SDS011;12356;49.386;8.688;2022-12-20T16:17:34;16.52;;;9.35;;
24216;SDS011;12356;49.386;8.688;2022-12-20T16:20:05;17.13;;;9.88;;
24216;SDS011;12356;49.386;8.688;2022-12-20T16:22:36;18.58;;;9.90;;
24216;SDS011;12356;49.386;8.688;2022-12-20T16:25:11;18.25;;;9.90;;
24216;SDS011;12356;49.386;8.688;2022-12-20T16:27:54;19.67;;;10.48;;
24216;SDS011;12356;49.386;8.688;2022-12-20T16:30:24;22.90;;;10.85;;
24216;SDS011;12356;49.386;8.688;2022-12-20T16:32:56;22.90;;;11.25;;
24216;SDS011;12356;49.386;8.688;2022-12-20T16:35:33;22.95;;;12.57;;
24216;SDS011;12356;49.386;8.688;2022-12-20T16:38:07;18.67;;;11.40;;
24216;SDS011;12356;49.386;8.688;2022-12-20T16:40:38;21.38;;;11.10;;
24216;SDS011;12356;49.386;8.688;2022-12-20T16:43:12;24.25;;;11.27;;
24216;SDS011;12356;49.386;8.688;2022-12-20T16:45:44;19.42;;;11.82;;
24216;SDS011;12356;49.386;8.688;2022-12-20T16:48:15;22.95;;;12.02;;
24216;SDS011;12356;49.386;8.688;2022-12-20T16:50:45;22.02;;;12.25;;
24216;SDS011;12356;49.386;8.688;2022-12-20T16:53:16;20.75;;;12.60;;
24216;SDS011;12356;49.386;8.688;2022-12-20T16:55:47;23.10;;;12.63;;
24216;SDS011;12356;49.386;8.688;2022-12-20T16:58:18;22.40;;;12.23;;
24216;SDS011;12356;49.386;8.688;2022-12-20T17:00:49;22.45;;;12.98;;
24216;SDS011;12356;49.386;8.688;2022-12-20T17:03:20;18.65;;;12.05;;
24216;SDS011;12356;49.386;8.688;2022-12-20T17:05:50;18.92;;;10.50;;
24216;SDS011;12356;49.386;8.688;2022-12-20T17:08:21;18.05;;;10.40;;
24216;SDS011;12356;49.386;8.688;2022-12-20T17:10:52;22.02;;;12.40;;
24216;SDS011;12356;49.386;8.688;2022-12-20T17:13:23;18.63;;;11.30;;
24216;SDS011;12356;49.386;8.688;2022-12-20T17:15:53;19.35;;;11.95;;
24216;SDS011;12356;49.386;8.688;2022-12-20T17:18:24;22.52;;;12.60;;
24216;SDS011;12356;49.386;8.688;2022-12-20T17:20:54;20.23;;;10.98;;
24216;SDS011;12356;49.386;8.688;2022-12-20T17:23:25;23.75;;;11.32;;
24216;SDS011;12356;49.386;8.688;2022-12-20T17:25:56;20.00;;;12.68;;
24216;SDS011;12356;49.386;8.688;2022-12-20T17:28:26;22.85;;;12.85;;
24216;SDS011;12356;49.386;8.688;2022-12-20T17:30:57;20.42;;;11.43;;
24216;SDS011;12356;49.386;8.688;2022-12-20T17:33:28;20.88;;;10.80;;